sensor_id;sensor_type;location;lat;lon;timestamp;P1;durP1;ratioP1;P2;durP2;ratioP2
2041;SDS011;1026;51.460;7.252;2024-02-04T00:00:17;10.17;;;8.90;;
2041;SDS011;1026;51.460;7.252;2024-02-04T00:02:44;9.70;;;8.20;;
2041;SDS011;1026;51.460;7.252;2024-02-04T00:05:11;11.30;;;9.63;;
2041;SDS011;1026;51.460;7.252;2024-02-04T00:07:38;10.03;;;8.93;;
2041;SDS011;1026;51.460;7.252;2024-02-04T00:10:05;9.63;;;8.57;;
2041;SDS011;1026;51.460;7.252;2024-02-04T00:12:32;10.40;;;8.27;;
2041;SDS011;1026;51.460;7.252;2024-02-04T00:14:59;9.60;;;8.37;;
2041;SDS011;1026;51.460;7.252;2024-02-04T00:17:26;9.70;;;8.63;;
2041;SDS011;1026;51.460;7.252;2024-02-04T00:19:56;11.60;;;8.20;;
2041;SDS011;1026;51.460;7.252;2024-02-04T00:22:23;9.40;;;8.40;;
2041;SDS011;1026;51.460;7.252;2024-02-04T00:24:50;8.00;;;7.20;;
2041;SDS011;1026;51.460;7.252;2024-02-04T00:27:17;10.00;;;7.50;;
2041;SDS011;1026;51.460;7.252;2024-02-04T00:29:44;7.83;;;6.33;;
2041;SDS011;1026;51.460;7.252;2024-02-04T00:32:11;10.20;;;7.60;;
2041;SDS011;1026;51.460;7.252;2024-02-04T00:34:38;6.53;;;5.50;;
2041;SDS011;1026;51.460;7.252;2024-02-04T00:37:05;7.53;;;6.73;;
2041;SDS011;1026;51.460;7.252;2024-02-04T00:39:32;7.23;;;6.20;;
2041;SDS011;1026;51.460;7.252;2024-02-04T00:41:59;5.57;;;4.40;;
2041;SDS011;1026;51.460;7.252;2024-02-04T00:44:26;6.90;;;6.20;;
2041;SDS011;1026;51.460;7.252;2024-02-04T00:46:53;5.17;;;4.67;;
2041;SDS011;1026;51.460;7.252;2024-02-04T00:49:19;5.70;;;5.10;;
2041;SDS011;1026;51.460;7.252;2024-02-04T00:51:46;5.17;;;4.60;;
2041;SDS011;1026;51.460;7.252;2024-02-04T00:54:13;5.33;;;4.83;;
2041;SDS011;1026;51.460;7.252;2024-02-04T00:56:40;4.53;;;4.13;;
2041;SDS011;1026;51.460;7.252;2024-02-04T00:59:07;4.97;;;4.57;;
2041;SDS011;1026;51.460;7.252;2024-02-04T01:01:34;5.57;;;5.07;;
2041;SDS011;1026;51.460;7.252;2024-02-04T01:04:01;4.17;;;3.80;;
2041;SDS011;1026;51.460;7.252;2024-02-04T01:06:28;4.87;;;4.23;;
2041;SDS011;1026;51.460;7.252;2024-02-04T01:09:02;3.77;;;3.43;;
2041;SDS011;1026;51.460;7.252;2024-02-04T01:11:29;3.90;;;3.33;;
2041;SDS011;1026;51.460;7.252;2024-02-04T01:13:56;3.73;;;3.40;;
2041;SDS011;1026;51.460;7.252;2024-02-04T01:16:23;4.07;;;3.60;;
2041;SDS011;1026;51.460;7.252;2024-02-04T01:18:49;3.00;;;2.80;;
2041;SDS011;1026;51.460;7.252;2024-02-04T01:21:16;6.00;;;4.67;;
2041;SDS011;1026;51.460;7.252;2024-02-04T01:23:43;4.47;;;4.07;;
2041;SDS011;1026;51.460;7.252;2024-02-04T01:26:10;2.90;;;2.60;;
2041;SDS011;1026;51.460;7.252;2024-02-04T01:28:37;4.67;;;4.27;;
2041;SDS011;1026;51.460;7.252;2024-02-04T01:31:04;3.40;;;3.10;;
2041;SDS011;1026;51.460;7.252;2024-02-04T01:33:31;3.40;;;3.10;;
2041;SDS011;1026;51.460;7.252;2024-02-04T01:35:58;3.10;;;2.13;;
2041;SDS011;1026;51.460;7.252;2024-02-04T01:38:24;3.33;;;3.03;;
2041;SDS011;1026;51.460;7.252;2024-02-04T01:40:51;3.07;;;2.77;;
2041;SDS011;1026;51.460;7.252;2024-02-04T01:43:20;2.07;;;1.97;;
2041;SDS011;1026;51.460;7.252;2024-02-04T01:45:50;3.03;;;2.83;;
2041;SDS011;1026;51.460;7.252;2024-02-04T01:48:20;2.73;;;2.53;;
2041;SDS011;1026;51.460;7.252;2024-02-04T01:50:48;2.20;;;2.10;;
2041;SDS011;1026;51.460;7.252;2024-02-04T01:53:17;4.33;;;4.00;;
2041;SDS011;1026;51.460;7.252;2024-02-04T01:55:48;3.80;;;2.63;;
2041;SDS011;1026;51.460;7.252;2024-02-04T01:58:15;3.33;;;2.43;;
2041;SDS011;1026;51.460;7.252;2024-02-04T02:00:43;2.57;;;2.37;;
2041;SDS011;1026;51.460;7.252;2024-02-04T02:03:12;2.90;;;1.93;;
2041;SDS011;1026;51.460;7.252;2024-02-04T02:05:40;2.97;;;2.77;;
2041;SDS011;1026;51.460;7.252;2024-02-04T02:08:07;2.70;;;2.50;;
2041;SDS011;1026;51.460;7.252;2024-02-04T02:10:34;3.27;;;2.97;;
2041;SDS011;1026;51.460;7.252;2024-02-04T02:13:06;3.60;;;2.70;;
2041;SDS011;1026;51.460;7.252;2024-02-04T02:15:43;4.20;;;3.87;;
2041;SDS011;1026;51.460;7.252;2024-02-04T02:18:15;3.90;;;3.60;;
2041;SDS011;1026;51.460;7.252;2024-02-04T02:24:13;4.40;;;4.00;;
2041;SDS011;1026;51.460;7.252;2024-02-04T02:26:46;5.00;;;3.60;;
2041;SDS011;1026;51.460;7.252;2024-02-04T02:29:15;6.33;;;5.27;;
2041;SDS011;1026;51.460;7.252;2024-02-04T02:31:42;4.83;;;4.40;;
2041;SDS011;1026;51.460;7.252;2024-02-04T02:34:14;5.17;;;4.67;;
2041;SDS011;1026;51.460;7.252;2024-02-04T02:36:45;5.77;;;4.73;;
2041;SDS011;1026;51.460;7.252;2024-02-04T02:39:21;6.83;;;6.23;;
2041;SDS011;1026;51.460;7.252;2024-02-04T02:41:52;5.53;;;5.03;;
2041;SDS011;1026;51.460;7.252;2024-02-04T02:44:23;6.53;;;5.93;;
2041;SDS011;1026;51.460;7.252;2024-02-04T02:46:52;7.07;;;6.37;;
2041;SDS011;1026;51.460;7.252;2024-02-04T02:49:22;6.90;;;6.20;;
2041;SDS011;1026;51.460;7.252;2024-02-04T02:51:49;5.40;;;4.90;;
2041;SDS011;1026;51.460;7.252;2024-02-04T02:54:16;6.63;;;5.80;;
2041;SDS011;1026;51.460;7.252;2024-02-04T02:56:43;8.43;;;6.70;;
2041;SDS011;1026;51.460;7.252;2024-02-04T02:59:09;6.57;;;5.97;;
2041;SDS011;1026;51.460;7.252;2024-02-04T03:01:38;7.37;;;6.50;;
2041;SDS011;1026;51.460;7.252;2024-02-04T03:04:06;7.20;;;6.50;;
2041;SDS011;1026;51.460;7.252;2024-02-04T03:06:33;8.73;;;7.83;;
2041;SDS011;1026;51.460;7.252;2024-02-04T03:09:00;8.27;;;7.47;;
2041;SDS011;1026;51.460;7.252;2024-02-04T03:11:27;8.50;;;7.60;;
2041;SDS011;1026;51.460;7.252;2024-02-04T03:13:54;9.17;;;8.03;;
2041;SDS011;1026;51.460;7.252;2024-02-04T03:16:21;10.10;;;8.80;;
2041;SDS011;1026;51.460;7.252;2024-02-04T03:18:48;13.63;;;8.90;;
2041;SDS011;1026;51.460;7.252;2024-02-04T03:21:15;10.93;;;9.73;;
2041;SDS011;1026;51.460;7.252;2024-02-04T03:23:44;8.03;;;6.50;;
2041;SDS011;1026;51.460;7.252;2024-02-04T03:26:11;13.20;;;11.80;;
2041;SDS011;1026;51.460;7.252;2024-02-04T03:28:42;13.30;;;11.20;;
2041;SDS011;1026;51.460;7.252;2024-02-04T03:31:09;13.37;;;11.93;;
2041;SDS011;1026;51.460;7.252;2024-02-04T03:33:36;19.53;;;12.50;;
2041;SDS011;1026;51.460;7.252;2024-02-04T03:36:03;16.50;;;12.20;;
2041;SDS011;1026;51.460;7.252;2024-02-04T03:38:30;12.03;;;10.40;;
2041;SDS011;1026;51.460;7.252;2024-02-04T03:40:57;14.93;;;12.87;;
2041;SDS011;1026;51.460;7.252;2024-02-04T03:43:24;12.70;;;11.10;;
2041;SDS011;1026;51.460;7.252;2024-02-04T03:45:50;16.67;;;14.17;;
2041;SDS011;1026;51.460;7.252;2024-02-04T03:48:17;13.40;;;10.50;;
2041;SDS011;1026;51.460;7.252;2024-02-04T03:50:44;13.60;;;9.17;;
2041;SDS011;1026;51.460;7.252;2024-02-04T03:53:11;11.03;;;9.47;;
2041;SDS011;1026;51.460;7.252;2024-02-04T03:55:38;15.83;;;12.13;;
2041;SDS011;1026;51.460;7.252;2024-02-04T03:58:05;13.90;;;11.87;;
2041;SDS011;1026;51.460;7.252;2024-02-04T04:00:32;12.57;;;9.57;;
2041;SDS011;1026;51.460;7.252;2024-02-04T04:02:59;15.27;;;12.40;;
2041;SDS011;1026;51.460;7.252;2024-02-04T04:05:25;15.03;;;12.63;;
2041;SDS011;1026;51.460;7.252;2024-02-04T04:07:53;14.23;;;11.00;;
2041;SDS011;1026;51.460;7.252;2024-02-04T04:10:21;11.77;;;10.57;;
2041;SDS011;1026;51.460;7.252;2024-02-04T04:12:47;12.07;;;9.70;;
2041;SDS011;1026;51.460;7.252;2024-02-04T04:15:14;14.10;;;10.67;;
2041;SDS011;1026;51.460;7.252;2024-02-04T04:17:41;11.93;;;10.63;;
2041;SDS011;1026;51.460;7.252;2024-02-04T04:20:08;14.90;;;10.33;;
2041;SDS011;1026;51.460;7.252;2024-02-04T04:22:38;15.03;;;10.17;;
2041;SDS011;1026;51.460;7.252;2024-02-04T04:25:06;11.57;;;9.80;;
2041;SDS011;1026;51.460;7.252;2024-02-04T04:27:33;11.97;;;10.70;;
2041;SDS011;1026;51.460;7.252;2024-02-04T04:30:00;14.73;;;11.50;;
2041;SDS011;1026;51.460;7.252;2024-02-04T04:32:27;13.40;;;10.80;;
2041;SDS011;1026;51.460;7.252;2024-02-04T04:34:54;16.00;;;14.17;;
2041;SDS011;1026;51.460;7.252;2024-02-04T04:37:22;14.30;;;11.93;;
2041;SDS011;1026;51.460;7.252;2024-02-04T04:39:49;14.80;;;12.27;;
2041;SDS011;1026;51.460;7.252;2024-02-04T04:42:16;13.33;;;11.60;;
2041;SDS011;1026;51.460;7.252;2024-02-04T04:44:42;15.53;;;13.90;;
2041;SDS011;1026;51.460;7.252;2024-02-04T04:47:09;13.20;;;10.63;;
2041;SDS011;1026;51.460;7.252;2024-02-04T04:49:36;10.50;;;9.13;;
2041;SDS011;1026;51.460;7.252;2024-02-04T04:52:03;16.87;;;11.67;;
2041;SDS011;1026;51.460;7.252;2024-02-04T04:54:30;13.73;;;12.23;;
2041;SDS011;1026;51.460;7.252;2024-02-04T04:56:57;15.07;;;12.03;;
2041;SDS011;1026;51.460;7.252;2024-02-04T04:59:24;14.97;;;13.40;;
2041;SDS011;1026;51.460;7.252;2024-02-04T05:01:51;15.27;;;13.50;;
2041;SDS011;1026;51.460;7.252;2024-02-04T05:04:18;17.27;;;15.53;;
2041;SDS011;1026;51.460;7.252;2024-02-04T05:06:45;20.20;;;15.50;;
2041;SDS011;1026;51.460;7.252;2024-02-04T05:09:12;16.10;;;12.23;;
2041;SDS011;1026;51.460;7.252;2024-02-04T05:11:39;13.00;;;11.17;;
2041;SDS011;1026;51.460;7.252;2024-02-04T05:14:06;19.27;;;13.73;;
2041;SDS011;1026;51.460;7.252;2024-02-04T05:16:33;21.23;;;13.73;;
2041;SDS011;1026;51.460;7.252;2024-02-04T05:19:00;15.80;;;12.63;;
2041;SDS011;1026;51.460;7.252;2024-02-04T05:21:26;14.97;;;12.87;;
2041;SDS011;1026;51.460;7.252;2024-02-04T05:23:53;14.53;;;10.83;;
2041;SDS011;1026;51.460;7.252;2024-02-04T05:26:21;16.13;;;13.20;;
2041;SDS011;1026;51.460;7.252;2024-02-04T05:28:47;16.90;;;14.80;;
2041;SDS011;1026;51.460;7.252;2024-02-04T05:31:14;13.43;;;11.97;;
2041;SDS011;1026;51.460;7.252;2024-02-04T05:33:41;13.90;;;11.70;;
2041;SDS011;1026;51.460;7.252;2024-02-04T05:36:08;15.40;;;12.67;;
2041;SDS011;1026;51.460;7.252;2024-02-04T05:38:35;18.43;;;12.70;;
2041;SDS011;1026;51.460;7.252;2024-02-04T05:41:02;14.90;;;12.53;;
2041;SDS011;1026;51.460;7.252;2024-02-04T05:43:29;12.90;;;10.20;;
2041;SDS011;1026;51.460;7.252;2024-02-04T05:45:55;15.47;;;12.03;;
2041;SDS011;1026;51.460;7.252;2024-02-04T05:48:22;15.50;;;11.23;;
2041;SDS011;1026;51.460;7.252;2024-02-04T05:50:49;14.20;;;11.17;;
2041;SDS011;1026;51.460;7.252;2024-02-04T05:53:16;12.67;;;10.53;;
2041;SDS011;1026;51.460;7.252;2024-02-04T05:55:43;15.50;;;11.50;;
2041;SDS011;1026;51.460;7.252;2024-02-04T05:58:10;14.50;;;10.83;;
2041;SDS011;1026;51.460;7.252;2024-02-04T06:00:39;12.27;;;10.37;;
2041;SDS011;1026;51.460;7.252;2024-02-04T06:03:06;14.27;;;10.70;;
2041;SDS011;1026;51.460;7.252;2024-02-04T06:05:33;11.00;;;9.90;;
2041;SDS011;1026;51.460;7.252;2024-02-04T06:08:00;13.97;;;10.30;;
2041;SDS011;1026;51.460;7.252;2024-02-04T06:10:27;14.13;;;11.07;;
2041;SDS011;1026;51.460;7.252;2024-02-04T06:12:54;14.33;;;12.87;;
2041;SDS011;1026;51.460;7.252;2024-02-04T06:15:20;15.70;;;13.00;;
2041;SDS011;1026;51.460;7.252;2024-02-04T06:17:47;14.23;;;12.40;;
2041;SDS011;1026;51.460;7.252;2024-02-04T06:20:15;18.97;;;13.80;;
2041;SDS011;1026;51.460;7.252;2024-02-04T06:22:42;11.80;;;10.30;;
2041;SDS011;1026;51.460;7.252;2024-02-04T06:25:09;18.33;;;14.77;;
2041;SDS011;1026;51.460;7.252;2024-02-04T06:27:36;24.23;;;14.60;;
2041;SDS011;1026;51.460;7.252;2024-02-04T06:30:03;18.87;;;14.07;;
2041;SDS011;1026;51.460;7.252;2024-02-04T06:32:34;18.00;;;15.90;;
2041;SDS011;1026;51.460;7.252;2024-02-04T06:35:01;18.90;;;14.43;;
2041;SDS011;1026;51.460;7.252;2024-02-04T06:37:29;14.93;;;13.33;;
2041;SDS011;1026;51.460;7.252;2024-02-04T06:39:55;15.20;;;12.67;;
2041;SDS011;1026;51.460;7.252;2024-02-04T06:42:23;21.07;;;14.40;;
2041;SDS011;1026;51.460;7.252;2024-02-04T06:44:49;22.70;;;15.70;;
2041;SDS011;1026;51.460;7.252;2024-02-04T06:47:16;18.30;;;15.63;;
2041;SDS011;1026;51.460;7.252;2024-02-04T06:49:43;18.53;;;15.00;;
2041;SDS011;1026;51.460;7.252;2024-02-04T06:52:11;22.00;;;14.33;;
2041;SDS011;1026;51.460;7.252;2024-02-04T06:54:38;18.90;;;13.57;;
2041;SDS011;1026;51.460;7.252;2024-02-04T06:57:05;14.80;;;11.83;;
2041;SDS011;1026;51.460;7.252;2024-02-04T06:59:32;14.10;;;11.40;;
2041;SDS011;1026;51.460;7.252;2024-02-04T07:01:59;13.87;;;12.00;;
2041;SDS011;1026;51.460;7.252;2024-02-04T07:04:26;12.50;;;11.30;;
2041;SDS011;1026;51.460;7.252;2024-02-04T07:06:53;17.17;;;10.70;;
2041;SDS011;1026;51.460;7.252;2024-02-04T07:09:20;15.73;;;12.60;;
2041;SDS011;1026;51.460;7.252;2024-02-04T07:11:47;14.67;;;10.67;;
2041;SDS011;1026;51.460;7.252;2024-02-04T07:14:13;13.17;;;11.77;;
2041;SDS011;1026;51.460;7.252;2024-02-04T07:16:40;11.80;;;10.27;;
2041;SDS011;1026;51.460;7.252;2024-02-04T07:19:07;15.33;;;10.80;;
2041;SDS011;1026;51.460;7.252;2024-02-04T07:21:34;13.50;;;11.10;;
2041;SDS011;1026;51.460;7.252;2024-02-04T07:24:01;14.07;;;11.40;;
2041;SDS011;1026;51.460;7.252;2024-02-04T07:26:29;17.83;;;11.70;;
2041;SDS011;1026;51.460;7.252;2024-02-04T07:28:56;13.40;;;11.30;;
2041;SDS011;1026;51.460;7.252;2024-02-04T07:31:22;13.27;;;11.90;;
2041;SDS011;1026;51.460;7.252;2024-02-04T07:33:49;13.50;;;11.20;;
2041;SDS011;1026;51.460;7.252;2024-02-04T07:36:16;16.23;;;11.43;;
2041;SDS011;1026;51.460;7.252;2024-02-04T07:38:43;15.07;;;10.67;;
2041;SDS011;1026;51.460;7.252;2024-02-04T07:41:12;14.10;;;11.70;;
2041;SDS011;1026;51.460;7.252;2024-02-04T07:43:41;14.93;;;11.83;;
2041;SDS011;1026;51.460;7.252;2024-02-04T07:46:10;17.70;;;12.03;;
2041;SDS011;1026;51.460;7.252;2024-02-04T07:48:37;14.20;;;10.30;;
2041;SDS011;1026;51.460;7.252;2024-02-04T07:51:05;15.23;;;9.07;;
2041;SDS011;1026;51.460;7.252;2024-02-04T07:53:33;15.57;;;11.30;;
2041;SDS011;1026;51.460;7.252;2024-02-04T07:56:00;11.30;;;9.60;;
2041;SDS011;1026;51.460;7.252;2024-02-04T07:58:29;14.20;;;9.93;;
2041;SDS011;1026;51.460;7.252;2024-02-04T08:00:56;9.70;;;8.40;;
2041;SDS011;1026;51.460;7.252;2024-02-04T08:03:23;9.50;;;8.47;;
2041;SDS011;1026;51.460;7.252;2024-02-04T08:05:50;9.10;;;7.60;;
2041;SDS011;1026;51.460;7.252;2024-02-04T08:08:17;11.47;;;8.40;;
2041;SDS011;1026;51.460;7.252;2024-02-04T08:10:44;11.67;;;8.67;;
2041;SDS011;1026;51.460;7.252;2024-02-04T08:13:11;10.33;;;9.20;;
2041;SDS011;1026;51.460;7.252;2024-02-04T08:15:38;9.07;;;7.40;;
2041;SDS011;1026;51.460;7.252;2024-02-04T08:18:05;12.60;;;7.73;;
2041;SDS011;1026;51.460;7.252;2024-02-04T08:20:34;9.80;;;8.10;;
2041;SDS011;1026;51.460;7.252;2024-02-04T08:23:00;10.93;;;6.90;;
2041;SDS011;1026;51.460;7.252;2024-02-04T08:25:27;8.77;;;7.60;;
2041;SDS011;1026;51.460;7.252;2024-02-04T08:27:54;6.47;;;5.60;;
2041;SDS011;1026;51.460;7.252;2024-02-04T08:30:24;6.70;;;5.97;;
2041;SDS011;1026;51.460;7.252;2024-02-04T08:32:51;5.60;;;5.03;;
2041;SDS011;1026;51.460;7.252;2024-02-04T08:35:18;6.27;;;5.67;;
2041;SDS011;1026;51.460;7.252;2024-02-04T08:37:45;6.23;;;4.60;;
2041;SDS011;1026;51.460;7.252;2024-02-04T08:40:12;7.60;;;4.87;;
2041;SDS011;1026;51.460;7.252;2024-02-04T08:42:39;6.00;;;5.23;;
2041;SDS011;1026;51.460;7.252;2024-02-04T08:45:06;6.87;;;6.17;;
2041;SDS011;1026;51.460;7.252;2024-02-04T08:47:34;5.33;;;4.80;;
2041;SDS011;1026;51.460;7.252;2024-02-04T08:50:01;4.40;;;4.00;;
2041;SDS011;1026;51.460;7.252;2024-02-04T08:52:28;7.47;;;4.57;;
2041;SDS011;1026;51.460;7.252;2024-02-04T08:54:55;4.80;;;3.53;;
2041;SDS011;1026;51.460;7.252;2024-02-04T08:57:22;4.07;;;3.40;;
2041;SDS011;1026;51.460;7.252;2024-02-04T08:59:49;3.27;;;2.97;;
2041;SDS011;1026;51.460;7.252;2024-02-04T09:02:16;3.43;;;2.90;;
2041;SDS011;1026;51.460;7.252;2024-02-04T09:04:43;3.40;;;3.10;;
2041;SDS011;1026;51.460;7.252;2024-02-04T09:07:10;4.40;;;3.10;;
2041;SDS011;1026;51.460;7.252;2024-02-04T09:09:37;5.23;;;3.87;;
2041;SDS011;1026;51.460;7.252;2024-02-04T09:12:04;4.60;;;3.83;;
2041;SDS011;1026;51.460;7.252;2024-02-04T09:14:31;3.60;;;2.60;;
2041;SDS011;1026;51.460;7.252;2024-02-04T09:16:58;3.43;;;3.13;;
2041;SDS011;1026;51.460;7.252;2024-02-04T09:19:25;3.77;;;3.47;;
2041;SDS011;1026;51.460;7.252;2024-02-04T09:21:52;3.87;;;3.30;;
2041;SDS011;1026;51.460;7.252;2024-02-04T09:24:19;6.97;;;4.30;;
2041;SDS011;1026;51.460;7.252;2024-02-04T09:26:46;4.00;;;3.70;;
2041;SDS011;1026;51.460;7.252;2024-02-04T09:29:13;4.37;;;3.97;;
2041;SDS011;1026;51.460;7.252;2024-02-04T09:31:40;4.30;;;3.90;;
2041;SDS011;1026;51.460;7.252;2024-02-04T09:34:07;4.00;;;3.60;;
2041;SDS011;1026;51.460;7.252;2024-02-04T09:36:35;4.47;;;3.80;;
2041;SDS011;1026;51.460;7.252;2024-02-04T09:39:02;6.10;;;5.60;;
2041;SDS011;1026;51.460;7.252;2024-02-04T09:41:30;6.77;;;6.10;;
2041;SDS011;1026;51.460;7.252;2024-02-04T09:43:57;7.90;;;6.90;;
2041;SDS011;1026;51.460;7.252;2024-02-04T09:46:25;11.27;;;8.50;;
2041;SDS011;1026;51.460;7.252;2024-02-04T09:48:53;10.13;;;7.17;;
2041;SDS011;1026;51.460;7.252;2024-02-04T09:51:22;11.17;;;7.13;;
2041;SDS011;1026;51.460;7.252;2024-02-04T09:53:52;7.80;;;7.13;;
2041;SDS011;1026;51.460;7.252;2024-02-04T09:56:22;9.63;;;8.60;;
2041;SDS011;1026;51.460;7.252;2024-02-04T09:58:51;9.53;;;7.30;;
2041;SDS011;1026;51.460;7.252;2024-02-04T10:01:19;7.33;;;6.10;;
2041;SDS011;1026;51.460;7.252;2024-02-04T10:03:49;7.30;;;6.37;;
2041;SDS011;1026;51.460;7.252;2024-02-04T10:06:16;8.10;;;7.30;;
2041;SDS011;1026;51.460;7.252;2024-02-04T10:08:43;6.20;;;5.60;;
2041;SDS011;1026;51.460;7.252;2024-02-04T10:11:12;8.83;;;7.23;;
2041;SDS011;1026;51.460;7.252;2024-02-04T10:13:42;8.00;;;6.30;;
2041;SDS011;1026;51.460;7.252;2024-02-04T10:16:10;7.47;;;6.37;;
2041;SDS011;1026;51.460;7.252;2024-02-04T10:18:41;8.70;;;6.60;;
2041;SDS011;1026;51.460;7.252;2024-02-04T10:21:19;8.33;;;6.40;;
2041;SDS011;1026;51.460;7.252;2024-02-04T10:23:50;6.77;;;6.07;;
2041;SDS011;1026;51.460;7.252;2024-02-04T10:26:17;8.10;;;6.70;;
2041;SDS011;1026;51.460;7.252;2024-02-04T10:28:46;7.30;;;6.50;;
2041;SDS011;1026;51.460;7.252;2024-02-04T10:31:14;7.30;;;6.60;;
2041;SDS011;1026;51.460;7.252;2024-02-04T10:33:42;7.60;;;6.73;;
2041;SDS011;1026;51.460;7.252;2024-02-04T10:36:10;7.90;;;6.83;;
2041;SDS011;1026;51.460;7.252;2024-02-04T10:38:37;7.90;;;7.10;;
2041;SDS011;1026;51.460;7.252;2024-02-04T10:41:04;6.70;;;6.10;;
2041;SDS011;1026;51.460;7.252;2024-02-04T10:43:33;12.80;;;6.47;;
2041;SDS011;1026;51.460;7.252;2024-02-04T10:46:07;8.67;;;7.77;;
2041;SDS011;1026;51.460;7.252;2024-02-04T10:48:38;7.83;;;7.03;;
2041;SDS011;1026;51.460;7.252;2024-02-04T10:51:11;8.90;;;7.00;;
2041;SDS011;1026;51.460;7.252;2024-02-04T10:53:44;7.73;;;6.80;;
2041;SDS011;1026;51.460;7.252;2024-02-04T10:56:18;8.50;;;6.40;;
2041;SDS011;1026;51.460;7.252;2024-02-04T10:58:49;7.27;;;6.50;;
2041;SDS011;1026;51.460;7.252;2024-02-04T11:01:16;6.67;;;5.80;;
2041;SDS011;1026;51.460;7.252;2024-02-04T11:03:44;6.03;;;5.50;;
2041;SDS011;1026;51.460;7.252;2024-02-04T11:06:12;8.63;;;5.83;;
2041;SDS011;1026;51.460;7.252;2024-02-04T11:08:40;5.57;;;5.00;;
2041;SDS011;1026;51.460;7.252;2024-02-04T11:11:07;5.93;;;5.40;;
2041;SDS011;1026;51.460;7.252;2024-02-04T11:13:34;5.87;;;5.13;;
2041;SDS011;1026;51.460;7.252;2024-02-04T11:16:04;6.10;;;5.27;;
2041;SDS011;1026;51.460;7.252;2024-02-04T11:18:40;5.90;;;5.23;;
2041;SDS011;1026;51.460;7.252;2024-02-04T11:21:42;5.67;;;4.93;;
2041;SDS011;1026;51.460;7.252;2024-02-04T11:24:51;4.10;;;3.70;;
2041;SDS011;1026;51.460;7.252;2024-02-04T11:27:49;7.00;;;4.10;;
2041;SDS011;1026;51.460;7.252;2024-02-04T11:30:17;8.50;;;4.90;;
2041;SDS011;1026;51.460;7.252;2024-02-04T11:32:44;4.00;;;3.60;;
2041;SDS011;1026;51.460;7.252;2024-02-04T11:35:13;6.00;;;5.17;;
2041;SDS011;1026;51.460;7.252;2024-02-04T11:37:41;5.87;;;4.97;;
2041;SDS011;1026;51.460;7.252;2024-02-04T11:40:13;4.93;;;4.23;;
2041;SDS011;1026;51.460;7.252;2024-02-04T11:42:42;4.97;;;3.67;;
2041;SDS011;1026;51.460;7.252;2024-02-04T11:45:10;5.20;;;3.93;;
2041;SDS011;1026;51.460;7.252;2024-02-04T11:47:39;4.00;;;3.70;;
2041;SDS011;1026;51.460;7.252;2024-02-04T11:50:07;3.57;;;3.27;;
2041;SDS011;1026;51.460;7.252;2024-02-04T11:52:36;4.07;;;3.20;;
2041;SDS011;1026;51.460;7.252;2024-02-04T11:55:04;4.10;;;3.70;;
2041;SDS011;1026;51.460;7.252;2024-02-04T11:57:34;3.03;;;2.70;;
2041;SDS011;1026;51.460;7.252;2024-02-04T12:00:01;2.40;;;2.20;;
2041;SDS011;1026;51.460;7.252;2024-02-04T12:02:32;3.30;;;3.00;;
2041;SDS011;1026;51.460;7.252;2024-02-04T12:04:59;2.70;;;2.43;;
2041;SDS011;1026;51.460;7.252;2024-02-04T12:07:27;3.73;;;3.17;;
2041;SDS011;1026;51.460;7.252;2024-02-04T12:09:56;3.03;;;2.63;;
2041;SDS011;1026;51.460;7.252;2024-02-04T12:12:23;3.17;;;2.87;;
2041;SDS011;1026;51.460;7.252;2024-02-04T12:14:52;4.30;;;3.70;;
2041;SDS011;1026;51.460;7.252;2024-02-04T12:17:20;3.90;;;3.50;;
2041;SDS011;1026;51.460;7.252;2024-02-04T12:19:47;4.00;;;3.63;;
2041;SDS011;1026;51.460;7.252;2024-02-04T12:22:16;5.50;;;4.10;;
2041;SDS011;1026;51.460;7.252;2024-02-04T12:24:43;5.40;;;4.47;;
2041;SDS011;1026;51.460;7.252;2024-02-04T12:27:12;5.50;;;4.40;;
2041;SDS011;1026;51.460;7.252;2024-02-04T12:29:43;7.40;;;5.10;;
2041;SDS011;1026;51.460;7.252;2024-02-04T12:32:13;5.07;;;4.57;;
2041;SDS011;1026;51.460;7.252;2024-02-04T12:34:40;6.53;;;5.90;;
2041;SDS011;1026;51.460;7.252;2024-02-04T12:37:08;6.30;;;5.70;;
2041;SDS011;1026;51.460;7.252;2024-02-04T12:39:36;8.20;;;6.03;;
2041;SDS011;1026;51.460;7.252;2024-02-04T12:42:03;7.27;;;6.57;;
2041;SDS011;1026;51.460;7.252;2024-02-04T12:44:31;9.70;;;8.00;;
2041;SDS011;1026;51.460;7.252;2024-02-04T12:46:58;6.67;;;6.07;;
2041;SDS011;1026;51.460;7.252;2024-02-04T12:49:25;8.00;;;7.20;;
2041;SDS011;1026;51.460;7.252;2024-02-04T12:51:52;6.57;;;5.93;;
2041;SDS011;1026;51.460;7.252;2024-02-04T12:54:30;7.80;;;7.10;;
2041;SDS011;1026;51.460;7.252;2024-02-04T12:56:57;9.50;;;8.52;;
2041;SDS011;1026;51.460;7.252;2024-02-04T12:59:29;8.90;;;8.10;;
2041;SDS011;1026;51.460;7.252;2024-02-04T13:01:57;9.13;;;7.80;;
2041;SDS011;1026;51.460;7.252;2024-02-04T13:04:32;8.80;;;7.93;;
2041;SDS011;1026;51.460;7.252;2024-02-04T13:07:06;8.03;;;7.20;;
2041;SDS011;1026;51.460;7.252;2024-02-04T13:09:46;10.53;;;8.23;;
2041;SDS011;1026;51.460;7.252;2024-02-04T13:12:23;11.10;;;7.97;;
2041;SDS011;1026;51.460;7.252;2024-02-04T13:14:50;6.70;;;6.10;;
2041;SDS011;1026;51.460;7.252;2024-02-04T13:17:17;7.53;;;6.73;;
2041;SDS011;1026;51.460;7.252;2024-02-04T13:19:44;9.83;;;8.43;;
2041;SDS011;1026;51.460;7.252;2024-02-04T13:22:11;8.13;;;7.33;;
2041;SDS011;1026;51.460;7.252;2024-02-04T13:24:41;7.13;;;6.53;;
2041;SDS011;1026;51.460;7.252;2024-02-04T13:27:07;8.50;;;7.53;;
2041;SDS011;1026;51.460;7.252;2024-02-04T13:29:34;8.10;;;7.07;;
2041;SDS011;1026;51.460;7.252;2024-02-04T13:32:02;7.63;;;6.93;;
2041;SDS011;1026;51.460;7.252;2024-02-04T13:34:29;7.77;;;6.97;;
2041;SDS011;1026;51.460;7.252;2024-02-04T13:36:56;8.27;;;7.60;;
2041;SDS011;1026;51.460;7.252;2024-02-04T13:39:23;8.33;;;7.60;;
2041;SDS011;1026;51.460;7.252;2024-02-04T13:41:50;8.00;;;7.20;;
2041;SDS011;1026;51.460;7.252;2024-02-04T13:44:17;7.10;;;6.50;;
2041;SDS011;1026;51.460;7.252;2024-02-04T13:46:43;8.20;;;7.40;;
2041;SDS011;1026;51.460;7.252;2024-02-04T13:49:10;8.13;;;7.33;;
2041;SDS011;1026;51.460;7.252;2024-02-04T13:51:39;8.40;;;7.60;;
2041;SDS011;1026;51.460;7.252;2024-02-04T13:54:10;8.93;;;8.10;;
2041;SDS011;1026;51.460;7.252;2024-02-04T13:56:42;7.40;;;6.70;;
2041;SDS011;1026;51.460;7.252;2024-02-04T13:59:09;8.47;;;7.67;;
2041;SDS011;1026;51.460;7.252;2024-02-04T14:01:36;8.13;;;7.30;;
2041;SDS011;1026;51.460;7.252;2024-02-04T14:04:03;7.10;;;6.50;;
2041;SDS011;1026;51.460;7.252;2024-02-04T14:06:30;5.97;;;5.47;;
2041;SDS011;1026;51.460;7.252;2024-02-04T14:08:57;7.20;;;6.50;;
2041;SDS011;1026;51.460;7.252;2024-02-04T14:11:24;8.73;;;5.43;;
2041;SDS011;1026;51.460;7.252;2024-02-04T14:13:50;6.13;;;5.13;;
2041;SDS011;1026;51.460;7.252;2024-02-04T14:16:17;6.10;;;5.40;;
2041;SDS011;1026;51.460;7.252;2024-02-04T14:18:44;5.27;;;4.87;;
2041;SDS011;1026;51.460;7.252;2024-02-04T14:21:13;6.73;;;5.17;;
2041;SDS011;1026;51.460;7.252;2024-02-04T14:23:42;6.30;;;5.80;;
2041;SDS011;1026;51.460;7.252;2024-02-04T14:26:16;5.10;;;4.70;;
2041;SDS011;1026;51.460;7.252;2024-02-04T14:28:44;4.60;;;4.20;;
2041;SDS011;1026;51.460;7.252;2024-02-04T14:31:11;4.70;;;4.27;;
2041;SDS011;1026;51.460;7.252;2024-02-04T14:33:38;5.40;;;4.27;;
2041;SDS011;1026;51.460;7.252;2024-02-04T14:36:06;4.70;;;4.30;;
2041;SDS011;1026;51.460;7.252;2024-02-04T14:38:33;7.07;;;5.57;;
2041;SDS011;1026;51.460;7.252;2024-02-04T14:41:02;6.50;;;5.53;;
2041;SDS011;1026;51.460;7.252;2024-02-04T14:43:29;5.67;;;5.13;;
2041;SDS011;1026;51.460;7.252;2024-02-04T14:45:56;5.03;;;4.53;;
2041;SDS011;1026;51.460;7.252;2024-02-04T14:48:24;9.27;;;5.57;;
2041;SDS011;1026;51.460;7.252;2024-02-04T14:50:51;6.90;;;6.00;;
2041;SDS011;1026;51.460;7.252;2024-02-04T14:53:18;5.83;;;5.33;;
2041;SDS011;1026;51.460;7.252;2024-02-04T14:55:45;7.10;;;6.40;;
2041;SDS011;1026;51.460;7.252;2024-02-04T14:58:11;6.27;;;5.77;;
2041;SDS011;1026;51.460;7.252;2024-02-04T15:00:38;5.67;;;5.17;;
2041;SDS011;1026;51.460;7.252;2024-02-04T15:03:05;7.10;;;6.50;;
2041;SDS011;1026;51.460;7.252;2024-02-04T15:05:32;8.60;;;7.70;;
2041;SDS011;1026;51.460;7.252;2024-02-04T15:07:59;8.93;;;7.93;;
2041;SDS011;1026;51.460;7.252;2024-02-04T15:10:26;8.20;;;7.40;;
2041;SDS011;1026;51.460;7.252;2024-02-04T15:12:53;8.70;;;7.90;;
2041;SDS011;1026;51.460;7.252;2024-02-04T15:15:21;10.40;;;8.90;;